createdAt,value
2023-05-16T00:02:16.561Z,99310.94
2023-05-16T00:04:46.311Z,99318.00
2023-05-16T00:09:53.232Z,99318.06
2023-05-16T00:12:22.904Z,99315.53
2023-05-16T00:14:53.012Z,99318.97
2023-05-16T00:17:22.982Z,99321.50
2023-05-16T00:19:58.386Z,99310.97
2023-05-16T00:22:30.646Z,99318.84
2023-05-16T00:25:00.153Z,99324.94
2023-05-16T00:27:29.666Z,99319.63
2023-05-16T00:29:59.249Z,99316.13
2023-05-16T00:32:28.765Z,99321.41
2023-05-16T00:34:58.436Z,99316.97
2023-05-16T00:37:30.698Z,99326.53
2023-05-16T00:40:00.362Z,99326.56
2023-05-16T00:45:04.238Z,99330.06
2023-05-16T00:47:33.889Z,99333.59
2023-05-16T00:50:04.238Z,99325.72
2023-05-16T00:52:36.526Z,99336.25
2023-05-16T00:55:07.039Z,99332.69
2023-05-16T00:57:36.622Z,99333.44
2023-05-16T01:00:07.246Z,99333.44
2023-05-16T01:02:37.930Z,99339.53
2023-05-16T01:05:08.646Z,99330.84
2023-05-16T01:07:40.813Z,99336.06
2023-05-16T01:10:11.745Z,99332.66
2023-05-16T01:12:48.571Z,99331.81
2023-05-16T01:15:24.318Z,99338.84
2023-05-16T01:17:59.848Z,99335.31
2023-05-16T01:20:39.716Z,99333.63
2023-05-16T01:23:30.508Z,99334.53
2023-05-16T01:26:11.874Z,99348.53
2023-05-16T01:28:42.463Z,99351.13
2023-05-16T01:31:12.038Z,99354.66
2023-05-16T01:33:41.652Z,99357.25
2023-05-16T01:36:16.868Z,99353.72
2023-05-16T01:38:54.680Z,99352.00
2023-05-16T01:41:31.083Z,99356.38
2023-05-16T01:44:04.885Z,99356.47
2023-05-16T01:46:40.297Z,99368.75
2023-05-16T01:49:18.426Z,99373.13
2023-05-16T01:51:53.623Z,99374.06
2023-05-16T01:54:27.699Z,99373.28
2023-05-16T01:57:00.265Z,99369.78
2023-05-16T01:59:30.352Z,99367.25
2023-05-16T02:02:00.884Z,99372.56
2023-05-16T02:04:30.599Z,99386.63
2023-05-16T02:07:01.199Z,99391.03
2023-05-16T02:09:34.056Z,99385.69
2023-05-16T02:12:06.540Z,99388.41
2023-05-16T02:14:36.122Z,99392.81
2023-05-16T02:17:06.301Z,99392.03
2023-05-16T02:19:36.205Z,99398.16
2023-05-16T02:22:05.712Z,99403.44
2023-05-16T02:24:35.253Z,99403.47
2023-05-16T02:27:08.298Z,99398.16
2023-05-16T02:29:37.850Z,99390.34
2023-05-16T02:32:08.178Z,99394.75
2023-05-16T02:34:37.735Z,99392.91
2023-05-16T02:37:07.525Z,99385.06
2023-05-16T02:39:38.118Z,99385.97
2023-05-16T02:42:10.684Z,99385.06
2023-05-16T02:44:40.200Z,99383.34
2023-05-16T02:47:09.747Z,99384.25
2023-05-16T02:49:39.346Z,99392.25
2023-05-16T02:52:09.325Z,99401.94
2023-05-16T02:54:39.156Z,99406.31
2023-05-16T02:57:11.318Z,99405.47
2023-05-16T02:59:41.002Z,99405.38
2023-05-16T03:02:11.555Z,99394.88
2023-05-16T03:04:42.345Z,99401.03
2023-05-16T03:07:11.914Z,99401.88
2023-05-16T03:09:41.472Z,99402.78
2023-05-16T03:12:13.699Z,99405.41
2023-05-16T03:14:43.270Z,99397.50
2023-05-16T03:17:12.795Z,99401.00
2023-05-16T03:19:42.465Z,99406.28
2023-05-16T03:22:11.996Z,99412.38
2023-05-16T03:24:41.688Z,99411.47
2023-05-16T03:27:13.967Z,99410.56
2023-05-16T03:29:43.558Z,99407.91
2023-05-16T03:32:14.471Z,99413.03
2023-05-16T03:34:43.988Z,99406.66
2023-05-16T03:37:15.139Z,99415.97
2023-05-16T03:39:44.781Z,99418.31
2023-05-16T03:42:18.504Z,99429.50
2023-05-16T03:44:48.869Z,99436.47
2023-05-16T03:47:18.428Z,99436.78
2023-05-16T03:49:48.001Z,99431.75
2023-05-16T03:52:17.544Z,99432.47
2023-05-16T03:54:47.262Z,99437.34
2023-05-16T03:57:19.446Z,99436.19
2023-05-16T03:59:49.030Z,99444.41
2023-05-16T04:02:19.126Z,99449.09
2023-05-16T04:04:48.784Z,99455.50
2023-05-16T04:07:18.621Z,99463.50
2023-05-16T04:09:48.319Z,99473.22
2023-05-16T04:14:55.306Z,99494.56
2023-05-16T04:17:24.876Z,99493.03
2023-05-16T04:19:54.485Z,99498.16
2023-05-16T04:22:24.657Z,99498.44
2023-05-16T04:24:54.215Z,99500.19
2023-05-16T04:27:27.070Z,99511.22
2023-05-16T04:29:56.789Z,99525.75
2023-05-16T04:32:29.137Z,99521.41
2023-05-16T04:34:58.759Z,99518.81
2023-05-16T04:37:28.283Z,99532.25
2023-05-16T04:39:57.831Z,99528.16
2023-05-16T04:42:29.909Z,99531.72
2023-05-16T04:45:00.285Z,99531.13
2023-05-16T04:47:29.935Z,99522.31
2023-05-16T04:49:59.482Z,99508.06
2023-05-16T04:55:00.641Z,99493.84
2023-05-16T04:57:32.806Z,99506.72
2023-05-16T05:00:02.353Z,99515.66
2023-05-16T05:02:32.279Z,99529.66
2023-05-16T05:05:01.871Z,99532.84
2023-05-16T05:07:35.257Z,99538.19
2023-05-16T05:10:05.449Z,99537.53
2023-05-16T05:12:38.231Z,99533.94
2023-05-16T05:15:09.548Z,99546.88
2023-05-16T05:17:39.957Z,99555.38
2023-05-16T05:20:10.803Z,99569.75
2023-05-16T05:22:40.596Z,99570.06
2023-05-16T05:25:10.930Z,99573.97
2023-05-16T05:27:43.210Z,99585.56
2023-05-16T05:30:13.743Z,99589.25
2023-05-16T05:32:43.381Z,99594.94
2023-05-16T05:35:13.025Z,99598.78
2023-05-16T05:37:42.572Z,99610.38
2023-05-16T05:40:13.114Z,99611.66
2023-05-16T05:42:47.054Z,99614.44
2023-05-16T05:45:18.543Z,99611.75
2023-05-16T05:47:48.217Z,99623.69
2023-05-16T05:50:18.477Z,99622.47
2023-05-16T05:52:48.033Z,99633.38
2023-05-16T05:55:17.584Z,99608.94
2023-05-16T05:57:54.358Z,99610.53
2023-05-16T06:00:24.419Z,99609.97
2023-05-16T06:02:54.063Z,99604.34
2023-05-16T06:05:24.167Z,99605.34
2023-05-16T06:07:53.753Z,99604.56
2023-05-16T06:10:23.351Z,99608.50
2023-05-16T06:12:55.444Z,99611.94
2023-05-16T06:18:00.780Z,99609.50
2023-05-16T06:20:30.581Z,99610.22
2023-05-16T06:23:00.126Z,99604.81
2023-05-16T06:25:30.593Z,99595.06
2023-05-16T06:28:02.757Z,99607.19
2023-05-16T06:30:32.565Z,99618.53
2023-05-16T06:33:02.130Z,99619.03
2023-05-16T06:35:31.926Z,99611.72
2023-05-16T06:38:01.445Z,99623.78
2023-05-16T06:40:30.996Z,99618.72
2023-05-16T06:43:03.149Z,99630.84
2023-05-16T06:45:32.816Z,99626.94
2023-05-16T06:48:02.401Z,99629.56
2023-05-16T06:50:31.992Z,99634.88
2023-05-16T06:53:01.638Z,99636.19
2023-05-16T06:55:31.254Z,99635.38
2023-05-16T06:58:03.415Z,99637.91
2023-05-16T07:00:32.995Z,99644.69
2023-05-16T07:03:02.677Z,99643.22
2023-05-16T07:05:32.478Z,99643.38
2023-05-16T07:08:02.084Z,99644.56
2023-05-16T07:10:31.729Z,99644.69
2023-05-16T07:13:05.173Z,99648.59
2023-05-16T07:15:34.811Z,99644.16
2023-05-16T07:18:04.461Z,99648.59
2023-05-16T07:20:34.446Z,99646.13
2023-05-16T07:23:04.121Z,99641.94
2023-05-16T07:25:33.707Z,99637.63
2023-05-16T07:28:05.989Z,99644.41
2023-05-16T07:30:35.583Z,99639.44
2023-05-16T07:33:05.197Z,99635.56
2023-05-16T07:35:34.884Z,99634.50
2023-05-16T07:38:04.482Z,99636.66
2023-05-16T07:40:34.099Z,99639.06
2023-05-16T07:43:06.264Z,99637.94
2023-05-16T07:45:35.869Z,99636.50
2023-05-16T07:48:05.529Z,99639.47
2023-05-16T07:50:36.414Z,99639.16
2023-05-16T07:53:06.017Z,99644.00
2023-05-16T07:55:35.664Z,99647.22
2023-05-16T07:58:07.988Z,99649.50
2023-05-16T08:00:37.621Z,99656.78
2023-05-16T08:03:07.654Z,99650.84
2023-05-16T08:05:37.454Z,99647.84
2023-05-16T08:08:07.308Z,99659.41
2023-05-16T08:10:36.938Z,99656.97
2023-05-16T08:13:09.894Z,99656.28
2023-05-16T08:15:39.640Z,99669.63
2023-05-16T08:18:16.534Z,99671.13
2023-05-16T08:20:46.588Z,99670.16
2023-05-16T08:23:17.510Z,99670.63
2023-05-16T08:25:47.216Z,99669.97
2023-05-16T08:28:19.549Z,99669.47
2023-05-16T08:30:49.142Z,99674.91
2023-05-16T08:33:18.868Z,99683.19
2023-05-16T08:35:49.654Z,99697.69
2023-05-16T08:38:19.260Z,99703.88
2023-05-16T08:40:48.897Z,99708.16
2023-05-16T08:43:21.236Z,99695.56
2023-05-16T08:45:50.920Z,99693.69
2023-05-16T08:48:25.788Z,99710.06
2023-05-16T08:50:55.515Z,99710.72
2023-05-16T08:53:29.108Z,99714.28
2023-05-16T08:55:59.491Z,99709.47
2023-05-16T08:58:32.526Z,99714.75
2023-05-16T09:01:06.881Z,99717.03
2023-05-16T09:03:36.658Z,99710.63
2023-05-16T09:06:08.527Z,99713.75
2023-05-16T09:08:38.149Z,99714.38
2023-05-16T09:11:08.487Z,99721.09
2023-05-16T09:13:40.908Z,99721.53
2023-05-16T09:16:18.154Z,99725.84
2023-05-16T09:18:50.448Z,99732.63
2023-05-16T09:21:20.057Z,99734.34
2023-05-16T09:23:52.385Z,99736.25
2023-05-16T09:26:22.912Z,99731.00
2023-05-16T09:28:56.522Z,99741.31
2023-05-16T09:31:27.934Z,99745.38
2023-05-16T09:33:59.488Z,99737.41
2023-05-16T09:36:29.307Z,99743.66
2023-05-16T09:38:58.913Z,99753.00
2023-05-16T09:41:28.519Z,99757.50
2023-05-16T09:44:00.724Z,99761.19
2023-05-16T09:46:30.611Z,99773.78
2023-05-16T09:49:00.270Z,99773.41
2023-05-16T09:51:30.294Z,99783.38
2023-05-16T09:54:01.798Z,99786.25
2023-05-16T09:56:31.470Z,99786.44
2023-05-16T09:59:03.631Z,99779.44
2023-05-16T10:01:33.638Z,99782.34
2023-05-16T10:04:03.498Z,99789.06
2023-05-16T10:06:33.223Z,99787.41
2023-05-16T10:09:03.590Z,99793.91
2023-05-16T10:11:33.923Z,99791.47
2023-05-16T10:14:08.421Z,99785.78
2023-05-16T10:16:38.660Z,99781.69
2023-05-16T10:19:08.477Z,99781.63
2023-05-16T10:21:40.557Z,99780.44
2023-05-16T10:24:13.709Z,99780.31
2023-05-16T10:26:43.296Z,99770.16
2023-05-16T10:29:15.869Z,99772.75
2023-05-16T10:31:46.071Z,99773.63
2023-05-16T10:34:16.062Z,99775.47
2023-05-16T10:36:47.104Z,99771.22
2023-05-16T10:39:17.910Z,99769.66
2023-05-16T10:41:47.703Z,99775.19
2023-05-16T10:44:20.259Z,99777.56
2023-05-16T10:46:50.315Z,99778.69
2023-05-16T10:49:24.074Z,99768.91
2023-05-16T10:52:07.489Z,99771.28
2023-05-16T10:54:39.516Z,99765.09
2023-05-16T10:57:12.007Z,99779.84
2023-05-16T10:59:49.150Z,99786.59
2023-05-16T11:02:27.181Z,99772.34
2023-05-16T11:04:59.715Z,99771.09
2023-05-16T11:07:34.428Z,99768.47
2023-05-16T11:10:09.744Z,99764.75
2023-05-16T11:12:41.074Z,99764.63
2023-05-16T11:15:28.808Z,99762.53
2023-05-16T11:18:10.284Z,99761.13
2023-05-16T11:20:41.284Z,99755.81
2023-05-16T11:23:24.775Z,99756.06
2023-05-16T11:25:57.849Z,99765.13
2023-05-16T11:28:30.270Z,99758.72
2023-05-16T11:31:05.490Z,99770.41
2023-05-16T11:33:37.350Z,99774.44
2023-05-16T11:38:44.120Z,99756.63
2023-05-16T11:41:15.700Z,99758.69
2023-05-16T11:43:46.892Z,99763.34
2023-05-16T11:46:19.164Z,99756.22
2023-05-16T11:48:49.016Z,99752.50
2023-05-16T11:51:21.580Z,99762.28
2023-05-16T11:53:52.685Z,99765.69
2023-05-16T11:56:23.646Z,99768.78
2023-05-16T11:58:53.631Z,99769.09
2023-05-16T12:01:27.021Z,99775.28
2023-05-16T12:03:59.574Z,99773.91
2023-05-16T12:06:31.515Z,99780.28
2023-05-16T12:09:03.200Z,99780.97
2023-05-16T12:11:33.368Z,99784.38
2023-05-16T12:14:03.188Z,99779.13
2023-05-16T12:16:37.308Z,99784.69
2023-05-16T12:19:08.421Z,99787.63
2023-05-16T12:21:38.906Z,99778.13
2023-05-16T12:24:12.117Z,99777.56
2023-05-16T12:26:44.825Z,99772.66
2023-05-16T12:29:14.488Z,99774.38
2023-05-16T12:31:47.496Z,99774.06
2023-05-16T12:34:21.788Z,99773.03
2023-05-16T12:36:54.800Z,99764.28
2023-05-16T12:39:25.859Z,99779.28
2023-05-16T12:41:55.396Z,99788.66
2023-05-16T12:44:25.385Z,99785.94
2023-05-16T12:46:58.471Z,99796.88
2023-05-16T12:49:28.038Z,99786.50
2023-05-16T12:52:05.834Z,99793.63
2023-05-16T12:54:35.592Z,99793.34
2023-05-16T12:57:07.327Z,99795.84
2023-05-16T12:59:37.224Z,99802.84
2023-05-16T13:02:10.218Z,99799.47
2023-05-16T13:04:40.179Z,99792.63
2023-05-16T13:07:09.782Z,99802.66
2023-05-16T13:09:39.352Z,99798.53
2023-05-16T13:12:09.255Z,99801.06
2023-05-16T13:14:38.910Z,99794.50
2023-05-16T13:17:12.060Z,99791.44
2023-05-16T13:19:41.778Z,99794.94
2023-05-16T13:22:11.372Z,99794.22
2023-05-16T13:24:41.042Z,99786.09
2023-05-16T13:27:10.761Z,99788.00
2023-05-16T13:29:40.858Z,99792.97
2023-05-16T13:32:13.333Z,99793.00
2023-05-16T13:34:42.926Z,99797.03
2023-05-16T13:37:12.540Z,99800.00
2023-05-16T13:39:42.202Z,99807.31
2023-05-16T13:42:11.779Z,99800.00
2023-05-16T13:44:41.438Z,99806.00
2023-05-16T13:47:14.137Z,99820.81
2023-05-16T13:49:43.784Z,99820.81
2023-05-16T13:52:13.480Z,99816.84
2023-05-16T13:54:43.289Z,99822.72
2023-05-16T13:57:12.895Z,99823.09
2023-05-16T14:02:17.858Z,99828.94
2023-05-16T14:04:49.708Z,99820.66
2023-05-16T14:07:19.688Z,99817.44
2023-05-16T14:09:49.342Z,99822.06
2023-05-16T14:12:18.875Z,99831.41
2023-05-16T14:14:48.552Z,99820.91
2023-05-16T14:17:20.720Z,99825.19
2023-05-16T14:19:50.318Z,99816.72
2023-05-16T14:22:19.886Z,99819.63
2023-05-16T14:24:49.442Z,99813.09
2023-05-16T14:27:19.205Z,99816.94
2023-05-16T14:29:49.395Z,99814.06
2023-05-16T14:32:21.624Z,99811.75
2023-05-16T14:34:51.335Z,99818.97
2023-05-16T14:37:21.199Z,99810.75
2023-05-16T14:39:51.077Z,99815.94
2023-05-16T14:42:21.646Z,99814.38
2023-05-16T14:44:51.653Z,99808.59
2023-05-16T14:47:24.282Z,99805.34
2023-05-16T14:49:54.657Z,99800.81
2023-05-16T14:52:24.360Z,99814.09
2023-05-16T14:54:53.990Z,99807.16
2023-05-16T14:57:23.584Z,99802.50
2023-05-16T14:59:53.167Z,99794.66
2023-05-16T15:02:27.025Z,99802.03
2023-05-16T15:04:56.851Z,99797.16
2023-05-16T15:07:26.486Z,99813.63
2023-05-16T15:09:56.082Z,99812.00
2023-05-16T15:12:25.723Z,99810.03
2023-05-16T15:14:55.383Z,99813.00
2023-05-16T15:17:31.121Z,99823.13
2023-05-16T15:20:00.730Z,99827.75
2023-05-16T15:22:30.601Z,99837.78
2023-05-16T15:25:00.289Z,99843.25
2023-05-16T15:27:30.372Z,99833.13
2023-05-16T15:29:59.915Z,99839.03
2023-05-16T15:32:32.336Z,99847.84
2023-05-16T15:35:01.985Z,99838.16
2023-05-16T15:37:31.809Z,99837.41
2023-05-16T15:40:01.500Z,99841.25
2023-05-16T15:42:31.253Z,99841.63
2023-05-16T15:45:01.081Z,99849.69
2023-05-16T15:47:33.399Z,99842.94
2023-05-16T15:50:03.088Z,99845.84
2023-05-16T15:52:33.010Z,99851.28
2023-05-16T15:55:02.586Z,99850.22
2023-05-16T15:57:33.380Z,99845.84
2023-05-16T16:00:03.012Z,99849.44
2023-05-16T16:02:35.238Z,99854.81
2023-05-16T16:05:04.932Z,99848.75
2023-05-16T16:07:34.571Z,99845.03
2023-05-16T16:10:04.154Z,99834.56
2023-05-16T16:12:37.098Z,99835.72
2023-05-16T16:15:07.559Z,99845.41
2023-05-16T16:17:39.734Z,99836.66
2023-05-16T16:20:10.403Z,99842.13
2023-05-16T16:22:39.967Z,99851.63
2023-05-16T16:25:10.569Z,99856.25
2023-05-16T16:27:40.596Z,99860.72
2023-05-16T16:30:11.852Z,99859.88
2023-05-16T16:32:44.117Z,99850.28
2023-05-16T16:35:13.749Z,99838.78
2023-05-16T16:37:51.642Z,99836.28
2023-05-16T16:40:33.319Z,99860.16
2023-05-16T16:43:02.929Z,99865.56
2023-05-16T16:45:32.543Z,99869.06
2023-05-16T16:48:04.819Z,99869.97
2023-05-16T16:50:34.527Z,99866.44
2023-05-16T16:53:04.675Z,99862.06
2023-05-16T16:55:34.365Z,99867.47
2023-05-16T16:58:05.196Z,99871.16
2023-05-16T17:00:35.011Z,99868.50
2023-05-16T17:03:07.359Z,99870.22
2023-05-16T17:05:37.094Z,99882.59
2023-05-16T17:08:08.356Z,99887.97
2023-05-16T17:10:37.972Z,99888.84
2023-05-16T17:13:10.577Z,99883.59
2023-05-16T17:15:40.407Z,99890.59
2023-05-16T17:18:12.715Z,99887.91
2023-05-16T17:20:42.550Z,99889.78
2023-05-16T17:23:12.133Z,99890.78
2023-05-16T17:25:42.249Z,99890.78
2023-05-16T17:28:11.843Z,99894.41
2023-05-16T17:30:41.754Z,99896.19
2023-05-16T17:33:14.354Z,99897.94
2023-05-16T17:35:43.979Z,99899.75
2023-05-16T17:38:13.747Z,99910.31
2023-05-16T17:40:43.579Z,99911.25
2023-05-16T17:43:13.415Z,99904.28
2023-05-16T17:45:43.183Z,99910.53
2023-05-16T17:48:15.413Z,99917.53
2023-05-16T17:50:46.165Z,99916.63
2023-05-16T17:53:16.157Z,99921.06
2023-05-16T17:55:46.529Z,99919.38
2023-05-16T17:58:16.915Z,99928.25
2023-05-16T18:00:47.398Z,99923.00
2023-05-16T18:03:19.784Z,99921.31
2023-05-16T18:05:49.763Z,99922.22
2023-05-16T18:08:19.540Z,99917.06
2023-05-16T18:10:52.268Z,99921.44
2023-05-16T18:13:22.618Z,99929.34
2023-05-16T18:15:52.786Z,99932.03
2023-05-16T18:18:24.968Z,99925.00
2023-05-16T18:20:54.609Z,99919.78
2023-05-16T18:23:24.921Z,99929.47
2023-05-16T18:25:54.671Z,99923.38
2023-05-16T18:28:24.359Z,99928.66
2023-05-16T18:30:54.152Z,99921.63
2023-05-16T18:33:26.364Z,99926.09
2023-05-16T18:35:55.921Z,99934.00
2023-05-16T18:38:32.699Z,99937.50
2023-05-16T18:41:03.491Z,99936.66
2023-05-16T18:43:35.395Z,99948.09
2023-05-16T18:46:05.342Z,99939.28
2023-05-16T18:48:37.567Z,99943.66
2023-05-16T18:51:07.388Z,99950.72
2023-05-16T18:53:37.086Z,99960.38
2023-05-16T18:56:07.415Z,99963.00
2023-05-16T18:58:36.976Z,99968.31
2023-05-16T19:01:06.961Z,99977.06
2023-05-16T19:03:39.359Z,99977.06
2023-05-16T19:06:09.245Z,99970.94
2023-05-16T19:08:47.467Z,99979.72
2023-05-16T19:11:17.545Z,99974.50
2023-05-16T19:13:47.303Z,99980.63
2023-05-16T19:16:17.082Z,99983.19
2023-05-16T19:18:49.672Z,99983.25
2023-05-16T19:21:19.355Z,99986.78
2023-05-16T19:23:48.994Z,99992.91
2023-05-16T19:26:18.745Z,99989.41
2023-05-16T19:28:48.348Z,99999.91
2023-05-16T19:31:17.920Z,99994.63
2023-05-16T19:33:50.134Z,99997.34
2023-05-16T19:36:19.848Z,99993.81
2023-05-16T19:38:49.444Z,100003.50
2023-05-16T19:41:19.040Z,100004.41
2023-05-16T19:43:48.682Z,99999.97
2023-05-16T19:46:18.266Z,100003.53
2023-05-16T19:48:50.690Z,99999.13
2023-05-16T19:51:33.190Z,99999.97
2023-05-16T19:54:10.047Z,100008.78
2023-05-16T19:56:39.618Z,100006.22
2023-05-16T19:59:09.411Z,100007.97
2023-05-16T20:04:31.349Z,100006.22
2023-05-16T20:07:01.144Z,100006.22
2023-05-16T20:09:31.405Z,100000.94
2023-05-16T20:12:01.085Z,100008.84
2023-05-16T20:14:33.444Z,100006.22
2023-05-16T20:17:03.042Z,100009.75
2023-05-16T20:19:35.548Z,99998.38
2023-05-16T20:22:05.552Z,100015.06
2023-05-16T20:24:35.129Z,100021.22
2023-05-16T20:27:04.733Z,100008.94
2023-05-16T20:29:34.316Z,100009.84
2023-05-16T20:32:04.177Z,100013.38
2023-05-16T20:34:36.532Z,100012.50
2023-05-16T20:37:06.389Z,100016.03
2023-05-16T20:39:36.177Z,100027.41
2023-05-16T20:42:08.675Z,100033.56
2023-05-16T20:44:38.305Z,100026.56
2023-05-16T20:47:08.327Z,100023.91
2023-05-16T20:49:40.568Z,100018.66
2023-05-16T20:52:10.189Z,100015.16
2023-05-16T20:54:40.204Z,100016.03
2023-05-16T20:57:12.672Z,100016.91
2023-05-16T20:59:43.414Z,100020.41
2023-05-16T21:02:13.001Z,100023.94
2023-05-16T21:04:45.180Z,100031.81
2023-05-16T21:07:14.757Z,100041.47
2023-05-16T21:09:44.348Z,100041.47
2023-05-16T21:12:13.951Z,100041.47
2023-05-16T21:14:44.359Z,100051.13
2023-05-16T21:17:13.917Z,100055.50
2023-05-16T21:19:46.295Z,100053.75
2023-05-16T21:22:15.957Z,100045.88
2023-05-16T21:24:45.578Z,100037.97
2023-05-16T21:27:15.226Z,100049.34
2023-05-16T21:29:44.773Z,100035.34
2023-05-16T21:32:16.298Z,100050.22
2023-05-16T21:34:48.495Z,100046.75
2023-05-16T21:37:18.088Z,100042.34
2023-05-16T21:39:47.672Z,100044.97
2023-05-16T21:42:17.249Z,100036.19
2023-05-16T21:44:46.844Z,100044.97
2023-05-16T21:47:16.454Z,100041.47
2023-05-16T21:49:48.661Z,100039.69
2023-05-16T21:52:18.295Z,100043.22
2023-05-16T21:54:51.618Z,100037.94
2023-05-16T21:57:21.780Z,100038.84
2023-05-16T21:59:52.111Z,100042.34
2023-05-16T22:02:23.268Z,100045.84
2023-05-16T22:04:55.994Z,100045.81
2023-05-16T22:07:29.357Z,100034.44
2023-05-16T22:09:59.424Z,100038.81
2023-05-16T22:12:29.987Z,100046.69
2023-05-16T22:15:00.369Z,100059.88
2023-05-16T22:17:30.022Z,100050.25
2023-05-16T22:20:02.372Z,100045.81
2023-05-16T22:22:32.060Z,100044.06
2023-05-16T22:25:01.742Z,100047.59
2023-05-16T22:27:31.336Z,100052.84
2023-05-16T22:30:00.871Z,100050.22
2023-05-16T22:32:30.633Z,100046.72
2023-05-16T22:35:02.929Z,100043.22
2023-05-16T22:37:32.567Z,100047.59
2023-05-16T22:40:02.120Z,100045.84
2023-05-16T22:42:31.753Z,100044.06
2023-05-16T22:45:01.350Z,100046.69
2023-05-16T22:47:31.618Z,100049.31
2023-05-16T22:50:04.195Z,100044.94
2023-05-16T22:52:33.749Z,100049.31
2023-05-16T22:55:03.363Z,100045.81
2023-05-16T22:57:32.999Z,100051.06
2023-05-16T23:00:04.667Z,100048.44
2023-05-16T23:02:34.352Z,100048.47
2023-05-16T23:05:07.153Z,100047.56
2023-05-16T23:07:36.780Z,100041.47
2023-05-16T23:10:07.000Z,100040.56
2023-05-16T23:12:36.558Z,100039.69
2023-05-16T23:15:10.145Z,100049.31
2023-05-16T23:17:40.535Z,100058.09
2023-05-16T23:20:13.792Z,100059.84
2023-05-16T23:22:43.455Z,100053.72
2023-05-16T23:25:13.017Z,100049.34
2023-05-16T23:27:42.557Z,100051.97
2023-05-16T23:30:13.632Z,100041.44
2023-05-16T23:32:43.559Z,100046.69
2023-05-16T23:35:15.786Z,100041.44
2023-05-16T23:37:45.362Z,100044.06
2023-05-16T23:40:15.587Z,100047.59
2023-05-16T23:42:45.126Z,100040.56
2023-05-16T23:45:14.900Z,100051.06
2023-05-16T23:47:44.496Z,100057.19
2023-05-16T23:50:17.584Z,100062.44
2023-05-16T23:52:47.145Z,100052.78
2023-05-16T23:55:16.894Z,100058.94
2023-05-16T23:57:46.464Z,100054.56
